Terminal Aerodrome Forecast
Issued by NWS

Home | Current Version | Previous Version | Text Only | Print | Product List | Glossary On
Versions: 1 2 3 4 5 6 7 8 9 10 11 12 13 14 15 16 17 18 19
000
FTUS41 KGYX 231120
TAFMHT
TAF
KMHT 231120Z 2312/2412 VRB03KT P6SM BKN250
     FM231600 12005KT P6SM BKN025
     FM232000 15007KT 4SM -RA OVC025
     FM232300 16007KT 1SM -RA OVC015
     FM240200 20008KT P6SM OVC007
     FM240900 27007KT P6SM SCT040=

USA.gov is the U.S. government's official web portal to all federal, state and local government web resources and services.